Time;durP1;ratioP1;P1;durP2;ratioP2;P2;SDS_P1;SDS_P2;PMS_P1;PMS_P2;Temp;Humidity;BMP_temperature;BMP_pressure;BME280_temperature;BME280_humidity;BME280_pressure;Samples;Min_cycle;Max_cycle;Signal;HPM_P1;HPM_P2
2022/04/01 00:01:02;;;;;;;4.35;2.10;;;0.70;99.90;;;;;;5018571;28;20469;-91
2022/04/01 00:03:28;;;;;;;3.78;2.03;;;0.60;99.90;;;;;;5018420;28;20059;-90
2022/04/01 00:05:54;;;;;;;5.72;2.38;;;0.60;99.90;;;;;;5019538;28;20040;-90
2022/04/01 00:08:25;;;;;;;3.45;1.52;;;0.50;99.90;;;;;;5021205;28;20542;-91
2022/04/01 00:10:59;;;;;;;5.40;1.92;;;0.60;99.90;;;;;;5010173;28;20048;-91
2022/04/01 00:13:25;;;;;;;3.20;1.77;;;0.50;99.90;;;;;;5036031;28;20048;-92
2022/04/01 00:15:57;;;;;;;7.05;1.90;;;0.50;99.90;;;;;;5020550;28;20112;-91
2022/04/01 00:18:25;;;;;;;3.20;1.58;;;0.60;99.90;;;;;;5020162;28;20055;-92
2022/04/01 00:20:56;;;;;;;5.38;1.90;;;0.60;99.90;;;;;;5036689;28;20041;-91
2022/04/01 00:23:25;;;;;;;4.90;1.63;;;0.60;99.90;;;;;;5020279;28;20131;-92
2022/04/01 00:25:55;;;;;;;4.47;1.90;;;0.60;99.90;;;;;;5032023;28;20056;-92
2022/04/01 00:28:24;;;;;;;4.07;2.15;;;0.70;99.90;;;;;;5036346;28;20069;-92
2022/04/01 00:30:58;;;;;;;8.27;1.55;;;0.80;99.90;;;;;;5003502;28;20114;-92
2022/04/01 00:33:27;;;;;;;2.63;1.58;;;0.60;99.90;;;;;;5036016;28;20120;-92
2022/04/01 00:35:56;;;;;;;3.80;1.85;;;0.70;99.90;;;;;;5036030;28;20512;-94
2022/04/01 00:38:27;;;;;;;6.15;1.70;;;0.70;99.90;;;;;;5001664;28;20051;-93
2022/04/01 00:40:59;;;;;;;7.03;2.10;;;0.70;99.90;;;;;;5019588;28;20047;-92
2022/04/01 00:43:37;;;;;;;2.83;1.30;;;0.70;99.90;;;;;;5019245;28;20128;-91
2022/04/01 00:46:08;;;;;;;3.75;1.40;;;0.70;99.90;;;;;;5026300;28;20044;-90
2022/04/01 00:48:39;;;;;;;5.05;1.65;;;0.70;99.90;;;;;;5019627;28;20055;-91
2022/04/01 00:51:19;;;;;;;3.17;1.77;;;0.70;99.90;;;;;;5035874;28;20486;-91
2022/04/01 00:53:45;;;;;;;2.30;1.70;;;0.70;99.90;;;;;;5023976;28;20067;-94
2022/04/01 00:56:24;;;;;;;;;;;;;;;;;;;;;
2022/04/01 00:58:57;;;;;;;3.25;2.00;;;0.70;99.90;;;;;;5035883;28;20061;-92
2022/04/01 01:01:26;;;;;;;4.70;1.60;;;0.70;99.90;;;;;;5035903;28;20036;-92
2022/04/01 01:04:07;;;;;;;3.65;1.63;;;0.80;99.90;;;;;;5021464;28;20048;-92
2022/04/01 01:06:55;;;;;;;8.40;1.80;;;0.70;99.90;;;;;;5008444;28;20238;-91
2022/04/01 01:09:26;;;;;;;3.05;1.83;;;0.80;99.90;;;;;;5042639;28;20099;-93
2022/04/01 01:11:59;;;;;;;7.03;1.60;;;0.70;99.90;;;;;;5023429;28;20045;-92
2022/04/01 01:14:31;;;;;;;5.15;1.73;;;0.80;99.90;;;;;;5021144;28;20477;-91
2022/04/01 01:17:21;;;;;;;5.38;1.92;;;0.80;99.90;;;;;;5010498;28;20048;-90
2022/04/01 01:19:46;;;;;;;3.40;1.63;;;0.80;99.90;;;;;;5035744;28;20045;-94
2022/04/01 01:22:35;;;;;;;2.30;1.40;;;0.80;99.90;;;;;;5018943;28;20370;-93
2022/04/01 01:25:15;;;;;;;2.88;1.55;;;0.80;99.90;;;;;;5012973;28;20117;-91
2022/04/01 01:28:13;;;;;;;3.22;1.27;;;0.80;99.90;;;;;;5021302;28;20131;-93
2022/04/01 01:31:14;;;;;;;4.05;1.33;;;0.80;99.90;;;;;;5017980;28;20106;-93
2022/04/01 01:33:46;;;;;;;2.85;1.50;;;0.80;99.90;;;;;;5020044;28;20496;-93
2022/04/01 01:36:17;;;;;;;3.58;1.55;;;0.90;99.90;;;;;;5018624;28;20045;-92
2022/04/01 01:38:55;;;;;;;3.88;1.70;;;0.90;99.90;;;;;;5002297;28;20049;-92
2022/04/01 01:41:27;;;;;;;4.70;1.70;;;0.80;99.90;;;;;;5017101;28;20120;-92
2022/04/01 01:43:56;;;;;;;3.47;1.42;;;0.90;99.90;;;;;;5034500;28;20056;-92
2022/04/01 01:46:26;;;;;;;4.90;1.60;;;0.80;99.90;;;;;;5034745;28;20049;-93
2022/04/01 01:49:12;;;;;;;;;;;;;;;;;;;;;
2022/04/01 01:54:45;;;;;;;5.38;1.90;;;0.80;99.90;;;;;;5025632;28;20132;-92
2022/04/01 01:57:39;;;;;;;2.63;1.63;;;0.80;99.90;;;;;;5003329;28;20049;-92
2022/04/01 02:00:10;;;;;;;5.47;2.10;;;0.80;99.90;;;;;;5027394;28;20052;-92
2022/04/01 02:02:38;;;;;;;3.85;1.80;;;0.70;99.90;;;;;;5020712;28;20045;-91
2022/04/01 02:05:29;;;;;;;4.07;1.83;;;0.80;99.90;;;;;;5019033;28;20125;-90
2022/04/01 02:08:00;;;;;;;7.88;1.90;;;0.80;99.90;;;;;;5002529;28;20033;-92
2022/04/01 02:10:29;;;;;;;3.67;1.52;;;0.80;99.90;;;;;;5003117;28;20071;-93
2022/04/01 02:12:58;;;;;;;2.67;1.50;;;0.70;99.90;;;;;;5036161;28;20067;-93
2022/04/01 02:15:26;;;;;;;6.93;1.55;;;0.70;99.90;;;;;;5034773;28;20041;-93
2022/04/01 02:17:57;;;;;;;3.47;2.22;;;0.90;99.90;;;;;;5015836;28;20482;-92
2022/04/01 02:20:28;;;;;;;3.83;1.77;;;0.90;99.90;;;;;;5005760;28;20063;-93
2022/04/01 02:22:59;;;;;;;3.75;1.90;;;0.80;99.90;;;;;;5009419;28;20045;-90
2022/04/01 02:25:27;;;;;;;3.25;1.80;;;0.90;99.90;;;;;;5031376;28;20085;-92
2022/04/01 02:27:56;;;;;;;4.80;1.65;;;0.80;99.90;;;;;;5037826;28;20124;-92
2022/04/01 02:30:28;;;;;;;2.83;1.67;;;0.90;99.90;;;;;;5038707;28;20091;-93
2022/04/01 02:32:57;;;;;;;3.17;1.73;;;0.90;99.90;;;;;;5023008;28;20060;-90
2022/04/01 02:35:46;;;;;;;3.40;1.80;;;0.90;99.90;;;;;;5005432;28;20041;-92
2022/04/01 02:38:28;;;;;;;4.93;1.60;;;0.90;99.90;;;;;;5037980;28;20081;-91
2022/04/01 02:41:06;;;;;;;3.60;1.63;;;0.90;99.90;;;;;;5022043;28;20543;-90
2022/04/01 02:43:52;;;;;;;2.65;1.55;;;0.90;99.90;;;;;;5021880;28;20489;-90
2022/04/01 02:46:45;;;;;;;3.10;1.30;;;0.90;99.90;;;;;;5039012;28;20041;-91
2022/04/01 02:49:18;;;;;;;2.50;1.40;;;0.90;99.90;;;;;;5022102;28;20052;-91
2022/04/01 02:51:47;;;;;;;6.43;2.33;;;0.90;99.90;;;;;;5022063;28;20041;-88
2022/04/01 02:54:35;;;;;;;4.88;2.00;;;0.90;99.90;;;;;;5005824;28;20041;-91
2022/04/01 02:57:06;;;;;;;4.22;1.50;;;0.90;99.90;;;;;;5021941;28;20041;-91
2022/04/01 02:59:39;;;;;;;5.45;2.58;;;0.90;99.90;;;;;;5021269;28;20490;-91
2022/04/01 03:02:07;;;;;;;2.70;1.48;;;0.90;99.90;;;;;;5022794;28;20045;-90
2022/04/01 03:04:37;;;;;;;3.28;1.33;;;1.00;99.90;;;;;;5005214;28;20052;-91
2022/04/01 03:07:06;;;;;;;5.78;1.70;;;0.90;99.90;;;;;;5037529;28;20041;-89
2022/04/01 03:09:47;;;;;;;4.28;2.28;;;0.90;99.90;;;;;;5021013;28;20486;-90
2022/04/01 03:12:17;;;;;;;4.10;1.60;;;1.10;99.90;;;;;;5038519;28;20052;-90
2022/04/01 03:15:09;;;;;;;5.40;2.33;;;1.00;99.90;;;;;;5018076;28;20042;-89
2022/04/01 03:17:34;;;;;;;4.50;1.50;;;1.00;99.90;;;;;;5030546;28;20045;-91
2022/04/01 03:20:13;;;;;;;2.78;1.80;;;1.00;99.90;;;;;;5054267;28;20057;-89
2022/04/01 03:22:45;;;;;;;4.80;1.38;;;1.10;99.90;;;;;;5033032;28;20094;-88
2022/04/01 03:25:19;;;;;;;3.80;1.60;;;1.00;99.90;;;;;;5021546;28;20049;-91
2022/04/01 03:27:55;;;;;;;2.97;1.30;;;0.90;99.90;;;;;;5019367;28;20594;-91
2022/04/01 03:30:29;;;;;;;3.55;1.75;;;0.90;99.90;;;;;;5019934;28;20128;-91
2022/04/01 03:33:07;;;;;;;3.78;1.70;;;0.90;99.90;;;;;;5020090;28;20099;-91
2022/04/01 03:35:36;;;;;;;4.50;1.80;;;1.00;99.90;;;;;;5019522;28;20422;-92
2022/04/01 03:38:16;;;;;;;3.75;1.77;;;1.00;99.90;;;;;;5003597;28;20693;-92
2022/04/01 03:40:49;;;;;;;4.82;1.88;;;1.00;99.90;;;;;;5004601;28;20052;-89
2022/04/01 03:43:23;;;;;;;4.97;1.90;;;1.00;99.90;;;;;;5013673;28;20056;-88
2022/04/01 03:45:52;;;;;;;5.10;1.60;;;1.00;99.90;;;;;;5035890;28;20051;-88
2022/04/01 03:48:44;;;;;;;2.10;1.30;;;1.00;99.90;;;;;;5034704;28;20498;-88
2022/04/01 03:51:16;;;;;;;3.13;1.42;;;1.00;99.90;;;;;;5020313;28;20052;-90
2022/04/01 03:53:52;;;;;;;2.90;1.40;;;1.00;99.90;;;;;;5020327;28;20098;-90
2022/04/01 03:56:35;;;;;;;3.30;1.50;;;1.00;99.90;;;;;;5020920;28;20040;-90
2022/04/01 03:59:07;;;;;;;3.10;1.50;;;1.00;99.90;;;;;;5021683;28;20045;-89
2022/04/01 04:01:37;;;;;;;3.25;1.42;;;1.00;99.90;;;;;;5029095;28;20049;-90
2022/04/01 04:04:06;;;;;;;4.15;1.73;;;1.00;99.90;;;;;;5037701;28;20106;-91
2022/04/01 04:06:37;;;;;;;2.90;1.33;;;1.00;99.90;;;;;;5020073;28;20086;-90
2022/04/01 04:09:20;;;;;;;3.85;1.75;;;1.00;99.90;;;;;;5016875;28;20045;-89
2022/04/01 04:11:48;;;;;;;2.90;1.70;;;1.10;99.90;;;;;;5010719;28;20130;-90
2022/04/01 04:14:17;;;;;;;3.45;1.50;;;1.00;99.90;;;;;;5023353;28;20138;-90
2022/04/01 04:16:55;;;;;;;5.32;1.55;;;1.00;99.90;;;;;;5020338;28;20393;-89
2022/04/01 04:19:59;;;;;;;3.00;1.20;;;1.30;99.90;;;;;;5019667;28;20072;-90
2022/04/01 04:22:58;;;;;;;3.83;1.60;;;1.10;99.90;;;;;;4934229;28;20047;-92
2022/04/01 04:25:36;;;;;;;2.22;1.35;;;1.10;99.90;;;;;;5024108;28;20098;-93
2022/04/01 04:28:27;;;;;;;3.22;1.15;;;1.20;99.90;;;;;;5020124;28;20041;-90
2022/04/01 04:31:02;;;;;;;3.17;1.10;;;1.10;99.90;;;;;;5019795;28;20131;-90
2022/04/01 04:33:49;;;;;;;2.72;0.88;;;1.10;99.90;;;;;;5027581;28;20140;-91
2022/04/01 04:36:33;;;;;;;1.30;0.85;;;1.20;99.90;;;;;;4994169;28;20101;-91
2022/04/01 04:39:13;;;;;;;5.30;1.33;;;1.20;99.90;;;;;;4983099;28;20058;-91
2022/04/01 04:41:40;;;;;;;2.10;1.10;;;1.20;99.90;;;;;;5012859;28;20093;-89
2022/04/01 04:44:18;;;;;;;2.85;1.20;;;1.20;99.90;;;;;;5000378;28;20141;-92
2022/04/01 04:46:48;;;;;;;1.50;1.00;;;1.30;99.90;;;;;;5013039;28;20514;-89
2022/04/01 04:49:18;;;;;;;2.70;1.20;;;1.30;99.90;;;;;;4996703;28;20501;-92
2022/04/01 04:51:48;;;;;;;3.65;1.25;;;1.20;99.90;;;;;;4995763;28;20056;-90
2022/04/01 04:54:25;;;;;;;2.75;1.08;;;1.20;99.90;;;;;;4987429;28;20111;-90
2022/04/01 04:57:02;;;;;;;5.15;2.17;;;1.30;99.90;;;;;;4993399;28;20076;-91
2022/04/01 04:59:38;;;;;;;2.15;1.33;;;1.30;99.90;;;;;;5012379;28;20471;-90
2022/04/01 05:02:19;;;;;;;3.45;2.20;;;1.20;99.90;;;;;;5012098;28;20049;-92
2022/04/01 05:05:23;;;;;;;3.30;1.02;;;1.20;99.90;;;;;;5011277;28;20065;-90
2022/04/01 05:08:03;;;;;;;6.25;1.45;;;1.10;99.90;;;;;;4917495;29;20127;-90
2022/04/01 05:10:57;;;;;;;3.35;1.30;;;1.10;99.90;;;;;;4916663;29;20076;-89
2022/04/01 05:14:07;;;;;;;2.85;1.17;;;1.20;99.90;;;;;;5011728;28;20493;-89
2022/04/01 05:16:52;;;;;;;4.10;0.98;;;1.20;99.90;;;;;;5011700;28;20044;-90
2022/04/01 05:19:48;;;;;;;4.93;1.15;;;1.20;99.90;;;;;;5011277;28;20054;-88
2022/04/01 05:22:47;;;;;;;3.25;0.90;;;1.10;99.90;;;;;;5006364;28;20058;-92
2022/04/01 05:29:02;;;;;;;;;;;;;;;;;;;;;
2022/04/01 05:31:42;;;;;;;1.88;1.00;;;1.10;99.90;;;;;;4987582;28;20058;-90
2022/04/01 05:34:09;;;;;;;3.05;1.25;;;1.10;99.90;;;;;;4988183;28;20501;-86
2022/04/01 05:36:37;;;;;;;5.40;1.55;;;1.20;99.90;;;;;;5012602;28;20552;-90
2022/04/01 05:39:04;;;;;;;5.10;1.10;;;1.10;99.90;;;;;;5015877;28;20455;-88
2022/04/01 05:41:31;;;;;;;2.67;0.98;;;1.20;99.90;;;;;;5016185;28;20544;-86
2022/04/01 05:43:58;;;;;;;8.45;2.20;;;1.20;99.90;;;;;;5014526;28;20081;-89
2022/04/01 05:46:25;;;;;;;4.25;1.05;;;1.20;99.90;;;;;;5032606;28;20047;-89
2022/04/01 05:49:03;;;;;;;6.20;1.10;;;1.20;99.90;;;;;;5016108;28;20046;-90
2022/04/01 05:51:33;;;;;;;2.50;0.93;;;1.20;99.90;;;;;;4997770;28;20046;-91
2022/04/01 05:54:00;;;;;;;2.50;1.10;;;1.30;99.90;;;;;;5004685;28;20124;-93
2022/04/01 05:56:37;;;;;;;5.30;1.15;;;1.40;99.90;;;;;;5033630;28;20494;-91
2022/04/01 05:59:09;;;;;;;7.05;1.45;;;1.30;99.90;;;;;;5021245;28;20131;-91
2022/04/01 06:02:01;;;;;;;2.45;1.15;;;1.40;99.90;;;;;;5018376;28;20055;-93
2022/04/01 06:05:17;;;;;;;;;;;;;;;;;;;;;
2022/04/01 06:08:08;;;;;;;2.60;1.02;;;1.40;99.90;;;;;;5049619;28;20033;-92
2022/04/01 06:10:51;;;;;;;2.72;1.10;;;1.50;99.90;;;;;;5017327;28;20056;-94
2022/04/01 06:17:51;;;;;;;3.05;1.13;;;1.60;99.90;;;;;;5020537;28;20046;-93
2022/04/01 06:20:32;;;;;;;2.45;1.10;;;1.70;99.90;;;;;;5020983;28;20132;-95
2022/04/01 06:23:45;;;;;;;5.43;1.27;;;1.70;99.90;;;;;;5021177;28;20049;-93
2022/04/01 06:30:18;;;;;;;;;;;;;;;;;;;;;
2022/04/01 06:33:00;;;;;;;4.38;1.35;;;1.90;99.90;;;;;;5007814;28;20115;-94
2022/04/01 06:36:05;;;;;;;4.10;1.05;;;1.90;99.90;;;;;;5019806;28;20054;-93
2022/04/01 06:38:54;;;;;;;2.70;1.20;;;2.00;99.90;;;;;;5020064;28;20052;-95
2022/04/01 06:41:43;;;;;;;3.00;1.33;;;2.10;99.90;;;;;;5034655;28;20391;-92
2022/04/01 06:44:34;;;;;;;1.75;1.10;;;2.20;99.90;;;;;;5017973;28;20506;-92
2022/04/01 06:47:13;;;;;;;;;;;;;;;;;;;;;
2022/04/01 06:50:03;;;;;;;2.05;0.75;;;2.30;99.90;;;;;;5035658;28;20106;-92
2022/04/01 06:52:55;;;;;;;2.55;1.20;;;2.40;99.90;;;;;;4970927;28;20060;-94
2022/04/01 06:56:13;;;;;;;3.35;0.85;;;2.50;99.90;;;;;;5020381;28;20508;-93
2022/04/01 06:59:04;;;;;;;2.78;1.77;;;2.50;99.90;;;;;;5020617;28;20057;-92
2022/04/01 07:01:52;;;;;;;3.38;1.27;;;2.50;99.90;;;;;;5041208;28;20075;-94
2022/04/01 07:04:17;;;;;;;1.52;0.80;;;2.60;99.90;;;;;;5019486;28;20506;-87
2022/04/01 07:06:43;;;;;;;3.53;1.00;;;2.60;99.60;;;;;;5018084;28;20037;-89
2022/04/01 07:09:12;;;;;;;3.38;0.90;;;2.60;99.90;;;;;;5011383;28;20046;-94
2022/04/01 07:11:45;;;;;;;3.90;1.50;;;2.60;99.90;;;;;;5015254;28;20049;-87
2022/04/01 07:14:13;;;;;;;2.45;1.20;;;2.80;99.90;;;;;;5017385;28;20056;-88
2022/04/01 07:17:02;;;;;;;6.45;1.08;;;2.80;99.90;;;;;;5017829;28;20091;-87
2022/04/01 07:19:35;;;;;;;11.88;1.83;;;2.80;98.20;;;;;;4999826;28;20057;-87
2022/04/01 07:22:11;;;;;;;4.97;1.33;;;2.70;99.00;;;;;;5018139;28;20044;-88
2022/04/01 07:25:01;;;;;;;5.97;1.25;;;2.90;99.70;;;;;;5004200;28;20493;-87
2022/04/01 07:27:25;;;;;;;3.33;1.45;;;2.80;99.50;;;;;;5032340;28;20507;-87
2022/04/01 07:29:53;;;;;;;3.05;1.02;;;2.80;99.90;;;;;;5001403;28;20123;-86
2022/04/01 07:32:36;;;;;;;3.22;1.23;;;2.90;99.50;;;;;;5002918;28;20064;-87
2022/04/01 07:35:05;;;;;;;3.97;1.20;;;2.90;99.60;;;;;;5018689;28;20278;-87
2022/04/01 07:38:00;;;;;;;5.80;1.80;;;2.90;99.80;;;;;;5015260;28;20089;-87
2022/04/01 07:40:26;;;;;;;4.03;1.23;;;2.90;99.90;;;;;;5015899;28;20053;-87
2022/04/01 07:42:53;;;;;;;6.70;1.27;;;3.00;99.90;;;;;;5031365;28;20037;-88
2022/04/01 07:45:24;;;;;;;3.10;1.60;;;3.00;99.90;;;;;;5014970;28;20053;-87
2022/04/01 07:47:54;;;;;;;3.03;1.25;;;3.00;99.90;;;;;;5014908;28;20049;-87
2022/04/01 07:50:23;;;;;;;3.60;1.42;;;3.10;99.90;;;;;;5027822;28;20499;-86
2022/04/01 07:52:53;;;;;;;7.32;1.48;;;3.00;99.90;;;;;;5005823;28;20096;-85
2022/04/01 07:55:22;;;;;;;5.30;1.80;;;3.10;99.90;;;;;;5005615;28;20395;-86
2022/04/01 07:57:56;;;;;;;1.92;1.40;;;3.10;99.90;;;;;;5012781;28;20045;-85
2022/04/01 08:00:22;;;;;;;4.05;1.60;;;3.10;99.90;;;;;;5014074;28;20054;-87
2022/04/01 08:02:53;;;;;;;3.03;1.20;;;3.00;99.90;;;;;;5014174;28;20055;-86
2022/04/01 08:05:21;;;;;;;3.22;1.20;;;3.00;99.90;;;;;;4999482;28;20140;-86
2022/04/01 08:07:52;;;;;;;3.25;1.45;;;2.90;99.90;;;;;;5011995;28;20446;-87
2022/04/01 08:10:32;;;;;;;4.05;1.60;;;2.90;99.90;;;;;;5014722;28;20053;-87
2022/04/01 08:13:12;;;;;;;5.70;2.00;;;2.80;99.90;;;;;;5045917;28;20084;-87
2022/04/01 08:16:02;;;;;;;4.47;2.20;;;2.80;99.90;;;;;;5020674;28;20060;-87
2022/04/01 08:18:24;;;;;;;3.20;1.90;;;2.80;99.90;;;;;;5025347;28;20062;-86
2022/04/01 08:20:50;;;;;;;5.53;2.60;;;2.90;99.90;;;;;;5005051;28;20052;-88
2022/04/01 08:23:19;;;;;;;6.85;2.53;;;2.80;99.90;;;;;;4992101;28;20124;-85
2022/04/01 08:25:48;;;;;;;5.45;3.00;;;2.80;99.90;;;;;;5003671;28;20077;-88
2022/04/01 08:28:32;;;;;;;7.68;3.28;;;2.80;99.90;;;;;;5012379;28;20498;-88
2022/04/01 08:31:02;;;;;;;6.55;3.45;;;2.80;99.90;;;;;;5030193;28;20504;-88
2022/04/01 08:33:33;;;;;;;6.30;3.05;;;2.70;99.90;;;;;;5012516;28;20049;-87
2022/04/01 08:36:01;;;;;;;6.95;3.55;;;2.70;99.90;;;;;;4999898;28;20076;-89
2022/04/01 08:38:44;;;;;;;6.50;3.95;;;2.70;99.90;;;;;;5017523;28;20045;-89
2022/04/01 08:41:56;;;;;;;;;;;;;;;;;;;;;
2022/04/01 08:44:24;;;;;;;4.82;3.25;;;2.60;99.90;;;;;;5035151;28;20067;-90
2022/04/01 08:47:13;;;;;;;8.00;4.20;;;2.60;99.90;;;;;;5002357;28;20041;-90
2022/04/01 08:49:49;;;;;;;7.25;4.85;;;2.60;99.90;;;;;;5016541;28;20036;-90
2022/04/01 08:52:22;;;;;;;7.20;4.90;;;2.70;99.90;;;;;;5019219;28;20601;-90
2022/04/01 08:55:24;;;;;;;7.97;4.57;;;2.70;99.90;;;;;;5018326;28;20053;-89
2022/04/01 08:57:53;;;;;;;8.65;4.50;;;2.90;99.90;;;;;;5008541;28;20106;-89
2022/04/01 09:00:19;;;;;;;8.25;5.35;;;3.10;99.90;;;;;;5016649;28;20127;-89
2022/04/01 09:03:12;;;;;;;9.25;4.60;;;3.20;99.90;;;;;;5017469;28;20118;-90
2022/04/01 09:06:03;;;;;;;8.07;4.45;;;3.20;99.50;;;;;;5017945;28;20099;-88
2022/04/01 09:09:04;;;;;;;7.18;3.88;;;3.30;99.50;;;;;;5025578;28;20060;-89
2022/04/01 09:11:35;;;;;;;8.60;4.65;;;3.50;98.90;;;;;;5017916;28;20149;-89
2022/04/01 09:14:03;;;;;;;6.47;3.78;;;3.60;99.60;;;;;;5026839;28;20049;-88
2022/04/01 09:16:41;;;;;;;7.22;5.00;;;3.60;98.20;;;;;;4999551;28;20050;-90
2022/04/01 09:19:13;;;;;;;6.53;4.45;;;3.60;98.50;;;;;;5003896;28;20752;-89
2022/04/01 09:21:49;;;;;;;5.35;3.83;;;3.60;98.30;;;;;;5017152;28;20040;-88
2022/04/01 09:24:15;;;;;;;;;;;3.60;95.90;;;;;;5017380;28;20751;-89
2022/04/01 09:26:43;;;;;;;6.70;4.37;;;3.60;96.30;;;;;;5023422;28;19921;-89
2022/04/01 09:29:15;;;;;;;7.93;4.03;;;3.70;98.50;;;;;;5032621;28;20656;-89
2022/04/01 09:31:57;;;;;;;6.65;4.13;;;3.90;96.80;;;;;;5017845;28;20049;-88
2022/04/01 09:34:32;;;;;;;6.65;3.85;;;3.80;97.40;;;;;;5033398;28;20048;-89
2022/04/01 09:37:25;;;;;;;7.60;4.80;;;3.90;96.70;;;;;;5007775;28;20127;-88
2022/04/01 09:40:03;;;;;;;5.90;4.22;;;4.00;97.40;;;;;;4998419;28;20107;-89
2022/04/01 09:42:53;;;;;;;7.45;4.68;;;4.00;96.50;;;;;;5011036;28;20399;-89
2022/04/01 09:45:26;;;;;;;7.18;3.40;;;4.30;95.00;;;;;;5014500;28;20048;-88
2022/04/01 09:48:16;;;;;;;7.63;4.55;;;4.30;94.90;;;;;;5031989;28;20052;-90
2022/04/01 09:51:14;;;;;;;7.90;3.92;;;4.30;95.90;;;;;;5012071;28;20114;-87
2022/04/01 09:53:54;;;;;;;6.72;3.95;;;4.30;93.60;;;;;;4997205;28;20052;-89
2022/04/01 09:56:45;;;;;;;4.85;3.63;;;4.30;95.90;;;;;;5003833;28;20079;-90
2022/04/01 09:59:31;;;;;;;4.90;3.30;;;4.50;94.40;;;;;;5010329;28;20056;-90
2022/04/01 10:02:18;;;;;;;4.55;3.13;;;4.70;94.40;;;;;;5030406;28;20114;-88
2022/04/01 10:05:13;;;;;;;7.43;4.07;;;4.70;94.20;;;;;;5036351;28;20048;-88
2022/04/01 10:07:44;;;;;;;6.32;3.83;;;4.50;95.50;;;;;;5012578;28;20547;-88
2022/04/01 10:10:13;;;;;;;5.53;3.45;;;4.50;96.80;;;;;;5001230;28;20076;-88
2022/04/01 10:12:56;;;;;;;6.47;3.45;;;4.50;96.60;;;;;;5014344;28;20036;-89
2022/04/01 10:15:34;;;;;;;8.15;3.35;;;4.30;96.40;;;;;;4996337;28;20099;-88
2022/04/01 10:18:02;;;;;;;6.93;3.30;;;4.30;96.70;;;;;;4995918;28;20053;-88
2022/04/01 10:20:35;;;;;;;5.05;2.90;;;4.50;96.20;;;;;;5009659;28;20049;-88
2022/04/01 10:23:16;;;;;;;4.50;3.05;;;4.40;94.80;;;;;;5013941;28;20513;-89
2022/04/01 10:26:04;;;;;;;7.20;2.90;;;4.60;96.50;;;;;;5014952;28;20056;-87
2022/04/01 10:28:33;;;;;;;4.68;2.80;;;4.40;94.30;;;;;;5031274;28;20124;-89
2022/04/01 10:31:03;;;;;;;4.05;2.70;;;4.30;95.90;;;;;;5001345;28;20171;-88
2022/04/01 10:33:35;;;;;;;5.28;2.55;;;4.10;96.10;;;;;;5015200;28;20048;-87
2022/04/01 10:36:37;;;;;;;6.10;2.65;;;4.10;96.90;;;;;;5003700;28;20130;-88
2022/04/01 10:39:15;;;;;;;4.63;2.53;;;4.30;97.40;;;;;;4991453;28;20077;-88
2022/04/01 10:42:04;;;;;;;4.13;2.38;;;4.40;98.20;;;;;;5013366;28;20057;-89
2022/04/01 10:44:53;;;;;;;11.50;2.65;;;4.50;95.90;;;;;;5033536;28;20091;-89
2022/04/01 10:51:36;;;;;;;3.30;1.63;;;4.70;96.20;;;;;;5010790;28;20426;-89
2022/04/01 10:54:24;;;;;;;4.30;2.47;;;5.00;96.80;;;;;;5035690;28;20041;-89
2022/04/01 10:57:14;;;;;;;4.22;2.60;;;5.10;97.60;;;;;;5043276;28;20060;-89
2022/04/01 11:00:04;;;;;;;5.78;2.95;;;4.90;95.20;;;;;;5042348;28;20464;-89
2022/04/01 11:02:33;;;;;;;6.63;2.65;;;4.60;96.80;;;;;;5019787;28;20061;-88
2022/04/01 11:05:44;;;;;;;5.40;3.10;;;4.50;97.60;;;;;;5014010;28;20120;-88
2022/04/01 11:09:04;;;;;;;4.10;2.45;;;4.50;98.70;;;;;;5023282;28;20053;-89
2022/04/01 11:11:35;;;;;;;7.30;2.85;;;4.50;99.00;;;;;;5013878;28;20058;-89
2022/04/01 11:14:13;;;;;;;4.90;2.40;;;4.40;99.70;;;;;;5038743;28;20045;-89
2022/04/01 11:17:06;;;;;;;5.45;2.03;;;4.40;99.90;;;;;;5018778;28;20102;-89
2022/04/01 11:19:34;;;;;;;2.90;1.90;;;4.60;98.20;;;;;;5025297;28;20762;-89
2022/04/01 11:22:45;;;;;;;3.00;1.65;;;4.70;98.80;;;;;;5018417;28;20053;-89
2022/04/01 11:25:36;;;;;;;2.95;1.52;;;4.70;94.90;;;;;;5014928;28;20808;-89
2022/04/01 11:28:08;;;;;;;2.92;1.75;;;4.70;96.30;;;;;;5036887;28;20080;-88
2022/04/01 11:30:43;;;;;;;3.53;1.67;;;4.70;95.70;;;;;;5018156;28;20053;-89
2022/04/01 11:33:39;;;;;;;;;;;;;;;;;;;;;
2022/04/01 11:36:24;;;;;;;2.85;1.63;;;4.60;96.10;;;;;;5025460;28;20136;-89
2022/04/01 11:38:52;;;;;;;4.07;1.70;;;4.80;95.80;;;;;;5002838;28;20154;-88
2022/04/01 11:41:46;;;;;;;1.38;1.10;;;5.00;96.00;;;;;;5017695;28;20133;-88
2022/04/01 11:44:15;;;;;;;2.25;1.20;;;5.20;92.90;;;;;;5033531;28;20142;-89
2022/04/01 11:47:06;;;;;;;4.03;1.55;;;5.00;92.60;;;;;;5018940;28;20040;-90
2022/04/01 11:49:35;;;;;;;2.38;1.25;;;5.10;92.20;;;;;;5034543;28;20075;-89
2022/04/01 11:52:11;;;;;;;3.13;1.70;;;5.30;93.60;;;;;;5016412;28;20486;-86
2022/04/01 11:54:49;;;;;;;1.90;1.30;;;5.50;93.90;;;;;;5018648;28;20516;-87
2022/04/01 11:57:15;;;;;;;3.90;1.10;;;5.60;91.90;;;;;;5034290;28;20044;-89
2022/04/01 11:59:46;;;;;;;4.43;1.88;;;5.50;91.40;;;;;;5027112;28;20100;-88
2022/04/01 12:02:16;;;;;;;3.00;1.67;;;5.50;91.80;;;;;;4993237;28;20055;-87
2022/04/01 12:10:58;;;;;;;3.75;2.00;;;5.50;92.70;;;;;;5033031;28;20044;-87
2022/04/01 12:13:40;;;;;;;3.80;1.75;;;5.60;92.50;;;;;;5016048;28;20052;-87
2022/04/01 12:16:25;;;;;;;2.28;1.60;;;5.80;94.00;;;;;;5019645;28;20053;-89
2022/04/01 12:18:55;;;;;;;3.58;1.65;;;5.70;94.20;;;;;;5034513;28;20047;-87
2022/04/01 12:21:26;;;;;;;4.40;2.08;;;5.60;94.50;;;;;;5018804;28;20045;-87
2022/04/01 12:24:04;;;;;;;5.50;2.22;;;5.40;95.50;;;;;;5022420;28;20049;-87
2022/04/01 12:26:33;;;;;;;7.07;1.83;;;5.20;97.00;;;;;;5014470;28;20049;-91
2022/04/01 12:29:16;;;;;;;8.23;2.45;;;5.00;98.50;;;;;;5027672;28;20072;-86
2022/04/01 12:31:52;;;;;;;3.55;2.03;;;5.00;99.30;;;;;;5035538;28;20588;-92
2022/04/01 12:34:44;;;;;;;8.82;2.85;;;5.20;99.50;;;;;;5053950;28;20041;-91
2022/04/01 12:37:23;;;;;;;5.50;2.08;;;5.60;98.90;;;;;;5007623;28;20201;-88
2022/04/01 12:39:58;;;;;;;4.55;2.40;;;5.80;98.10;;;;;;5017409;28;20048;-88
2022/04/01 12:42:29;;;;;;;4.20;1.98;;;5.80;97.40;;;;;;5010683;28;20034;-88
2022/04/01 12:45:00;;;;;;;3.80;2.10;;;5.90;96.80;;;;;;4998683;28;20495;-89
2022/04/01 12:47:27;;;;;;;3.88;1.73;;;6.10;96.90;;;;;;5015629;28;20045;-89
2022/04/01 12:49:53;;;;;;;4.03;1.75;;;6.30;96.00;;;;;;5018539;28;20135;-90
2022/04/01 12:52:24;;;;;;;4.15;1.88;;;6.40;95.10;;;;;;5019649;28;20583;-90
2022/04/01 12:54:58;;;;;;;3.88;1.70;;;6.50;93.70;;;;;;5018866;28;20092;-90
2022/04/01 12:57:24;;;;;;;3.80;1.90;;;6.70;93.80;;;;;;5041253;28;20040;-88
2022/04/01 12:59:50;;;;;;;9.43;1.90;;;6.60;93.80;;;;;;5014098;28;20060;-89
2022/04/01 13:05:13;;;;;;;3.83;1.70;;;5.90;92.10;;;;;;5032550;28;20059;-88
2022/04/01 13:07:39;;;;;;;2.95;1.25;;;5.80;93.10;;;;;;5028410;28;20041;-88
2022/04/01 13:10:09;;;;;;;2.78;1.30;;;5.90;91.40;;;;;;5018186;28;20064;-89
2022/04/01 13:12:34;;;;;;;3.53;1.80;;;5.70;90.40;;;;;;5025067;28;20048;-89
2022/04/01 13:15:13;;;;;;;4.80;1.55;;;5.60;88.30;;;;;;5014313;28;20486;-90
2022/04/01 13:17:52;;;;;;;5.30;1.75;;;5.50;85.90;;;;;;5011124;28;20045;-89
2022/04/01 13:20:26;;;;;;;2.90;2.08;;;5.50;87.20;;;;;;5000700;28;20055;-89
2022/04/01 13:22:54;;;;;;;2.65;1.30;;;5.70;87.00;;;;;;5016498;28;20048;-90
2022/04/01 13:25:26;;;;;;;5.13;1.92;;;5.80;82.70;;;;;;5001312;28;20080;-88
2022/04/01 13:27:56;;;;;;;2.97;1.58;;;5.70;83.50;;;;;;5030301;28;20045;-90
2022/04/01 13:30:25;;;;;;;6.22;2.15;;;5.70;82.70;;;;;;5024234;28;20095;-89
2022/04/01 13:32:56;;;;;;;4.07;1.30;;;5.80;82.20;;;;;;5012456;28;20068;-89
2022/04/01 13:35:22;;;;;;;2.47;1.52;;;5.80;82.60;;;;;;5025477;28;20049;-87
2022/04/01 13:37:53;;;;;;;3.92;1.33;;;5.90;80.30;;;;;;5030664;28;20053;-90
2022/04/01 13:40:25;;;;;;;2.15;1.10;;;5.80;79.20;;;;;;5016151;28;20098;-90
2022/04/01 13:42:54;;;;;;;3.55;1.50;;;5.70;76.70;;;;;;5031329;28;20044;-93
2022/04/01 13:45:23;;;;;;;2.85;1.40;;;5.70;79.10;;;;;;5016156;28;20053;-90
2022/04/01 13:47:51;;;;;;;2.63;1.40;;;5.80;79.40;;;;;;5038522;28;20041;-90
2022/04/01 13:50:22;;;;;;;3.83;1.60;;;5.80;79.60;;;;;;5003489;28;20478;-89
2022/04/01 13:52:53;;;;;;;1.58;1.00;;;5.80;78.30;;;;;;5012259;28;20099;-90
2022/04/01 13:55:41;;;;;;;3.42;2.13;;;5.60;75.90;;;;;;5025697;28;20099;-89
2022/04/01 13:58:17;;;;;;;4.35;1.60;;;5.60;76.80;;;;;;5004758;28;20049;-90
2022/04/01 14:00:42;;;;;;;7.28;1.77;;;5.60;79.30;;;;;;5010632;28;20055;-90
2022/04/01 14:03:16;;;;;;;4.50;1.67;;;5.70;78.00;;;;;;5018068;28;20040;-89
2022/04/01 14:05:49;;;;;;;4.55;1.80;;;5.70;77.40;;;;;;5036365;28;20037;-92
2022/04/01 14:08:15;;;;;;;2.85;1.38;;;5.60;78.70;;;;;;5008012;28;20037;-90
2022/04/01 14:10:45;;;;;;;5.80;1.92;;;5.60;78.30;;;;;;5028978;28;20047;-91
2022/04/01 14:13:13;;;;;;;4.07;1.85;;;5.60;78.60;;;;;;5006691;28;20055;-90
2022/04/01 14:15:43;;;;;;;4.65;1.55;;;5.50;79.50;;;;;;5032852;28;20514;-89
2022/04/01 14:18:09;;;;;;;4.38;1.77;;;5.50;77.70;;;;;;5033021;28;20079;-90
2022/04/01 14:20:35;;;;;;;2.30;1.20;;;5.50;79.10;;;;;;5038443;28;20040;-92
2022/04/01 14:23:04;;;;;;;4.13;2.30;;;5.40;77.50;;;;;;5033286;28;20379;-90
2022/04/01 14:25:32;;;;;;;4.25;1.50;;;5.40;77.30;;;;;;5022479;28;20044;-90